createdAt,value
2023-01-17T00:00:34.766Z,1.52
2023-01-17T00:03:01.439Z,1.60
2023-01-17T00:05:46.675Z,1.60
2023-01-17T00:08:32.051Z,1.55
2023-01-17T00:10:58.674Z,1.42
2023-01-17T00:13:25.245Z,1.60
2023-01-17T00:15:52.142Z,1.40
2023-01-17T00:18:18.806Z,1.10
2023-01-17T00:21:03.686Z,0.90
2023-01-17T00:23:41.961Z,0.80
2023-01-17T00:26:18.026Z,1.20
2023-01-17T00:28:45.253Z,0.98
2023-01-17T00:31:13.652Z,1.05
2023-01-17T00:33:40.238Z,1.00
2023-01-17T00:36:07.954Z,1.00
2023-01-17T00:38:37.153Z,1.10
2023-01-17T00:41:06.069Z,1.00
2023-01-17T00:43:51.789Z,0.80
2023-01-17T00:46:37.590Z,1.10
2023-01-17T00:49:23.260Z,0.95
2023-01-17T00:52:08.764Z,0.60
2023-01-17T00:54:54.084Z,0.80
2023-01-17T00:57:39.464Z,0.80
2023-01-17T01:00:25.295Z,0.90
2023-01-17T01:03:10.272Z,0.90
2023-01-17T01:05:56.697Z,1.05
2023-01-17T01:08:44.473Z,0.90
2023-01-17T01:11:32.407Z,1.00
2023-01-17T01:14:19.325Z,0.90
2023-01-17T01:17:04.627Z,1.10
2023-01-17T01:19:49.517Z,0.65
2023-01-17T01:22:34.390Z,1.00
2023-01-17T01:25:19.231Z,1.00
2023-01-17T01:28:04.765Z,1.33
2023-01-17T01:30:50.272Z,0.95
2023-01-17T01:33:19.995Z,0.90
2023-01-17T01:35:46.492Z,0.70
2023-01-17T01:38:13.055Z,0.93
2023-01-17T01:40:47.719Z,0.90
2023-01-17T01:43:16.419Z,1.10
2023-01-17T01:45:49.553Z,1.13
2023-01-17T01:48:38.456Z,0.98
2023-01-17T01:51:09.617Z,1.10
2023-01-17T01:53:40.596Z,0.65
2023-01-17T01:56:12.588Z,1.33
2023-01-17T02:01:08.322Z,0.80
2023-01-17T02:03:35.979Z,1.80
2023-01-17T02:06:14.372Z,1.90
2023-01-17T02:08:41.452Z,2.20
2023-01-17T02:11:08.046Z,2.25
2023-01-17T02:13:34.599Z,2.20
2023-01-17T02:16:15.949Z,3.00
2023-01-17T02:18:57.084Z,2.40
2023-01-17T02:21:28.033Z,2.40
2023-01-17T02:23:54.521Z,1.00
2023-01-17T02:26:45.954Z,3.00
2023-01-17T02:29:36.795Z,3.13
2023-01-17T02:32:37.825Z,3.03
2023-01-17T02:35:13.287Z,2.88
2023-01-17T02:38:02.675Z,2.85
2023-01-17T02:40:40.044Z,2.03
2023-01-17T02:43:11.500Z,2.00
2023-01-17T02:45:37.982Z,0.80
2023-01-17T02:48:08.068Z,1.40
2023-01-17T02:50:50.194Z,1.40
2023-01-17T02:56:11.636Z,1.65
2023-01-17T02:58:59.682Z,1.33
2023-01-17T03:01:38.164Z,1.40
2023-01-17T03:04:35.506Z,0.60
2023-01-17T03:07:08.862Z,1.27
2023-01-17T03:09:36.324Z,1.58
2023-01-17T03:12:04.505Z,1.70
2023-01-17T03:14:31.784Z,1.83
2023-01-17T03:16:58.412Z,1.52
2023-01-17T03:19:24.880Z,1.00
2023-01-17T03:21:51.336Z,1.70
2023-01-17T03:24:17.929Z,1.50
2023-01-17T03:26:44.982Z,1.40
2023-01-17T03:29:11.565Z,1.40
2023-01-17T03:31:38.039Z,1.15
2023-01-17T03:34:04.642Z,1.10
2023-01-17T03:36:31.190Z,0.45
2023-01-17T03:38:57.681Z,1.13
2023-01-17T03:41:25.469Z,1.10
2023-01-17T03:43:52.057Z,0.90
2023-01-17T03:46:24.622Z,1.10
2023-01-17T03:48:52.095Z,1.10
2023-01-17T03:51:18.805Z,1.20
2023-01-17T03:53:46.910Z,0.50
2023-01-17T03:56:14.216Z,1.17
2023-01-17T03:58:41.767Z,1.20
2023-01-17T04:01:08.515Z,1.30
2023-01-17T04:03:35.099Z,1.23
2023-01-17T04:06:01.598Z,1.30
2023-01-17T04:08:28.323Z,1.30
2023-01-17T04:10:54.850Z,1.45
2023-01-17T04:13:21.366Z,1.50
2023-01-17T04:15:50.344Z,1.50
2023-01-17T04:18:19.238Z,0.60
2023-01-17T04:20:45.783Z,1.30
2023-01-17T04:23:12.321Z,1.55
2023-01-17T04:25:38.878Z,1.30
2023-01-17T04:28:05.826Z,1.50
2023-01-17T04:30:33.123Z,1.20
2023-01-17T04:32:59.922Z,0.70
2023-01-17T04:35:26.409Z,1.75
2023-01-17T04:37:52.949Z,1.65
2023-01-17T04:40:19.611Z,1.63
2023-01-17T04:42:46.280Z,1.63
2023-01-17T04:45:13.189Z,0.90
2023-01-17T04:47:39.763Z,1.60
2023-01-17T04:50:07.375Z,1.70
2023-01-17T04:52:33.905Z,1.60
2023-01-17T04:55:00.470Z,1.52
2023-01-17T04:57:27.044Z,1.48
2023-01-17T04:59:53.624Z,1.88
2023-01-17T05:02:20.324Z,2.20
2023-01-17T05:04:46.880Z,1.30
2023-01-17T05:07:13.672Z,1.13
2023-01-17T05:09:40.327Z,2.65
2023-01-17T05:12:07.080Z,1.17
2023-01-17T05:14:34.297Z,2.88
2023-01-17T05:17:02.899Z,4.22
2023-01-17T05:19:29.513Z,3.72
2023-01-17T05:21:55.996Z,3.78
2023-01-17T05:24:22.564Z,4.03
2023-01-17T05:26:54.573Z,1.65
2023-01-17T05:29:21.657Z,1.77
2023-01-17T05:31:48.388Z,4.78
2023-01-17T05:34:14.903Z,4.63
2023-01-17T05:36:41.436Z,5.13
2023-01-17T05:39:07.971Z,5.32
2023-01-17T05:41:34.438Z,5.70
2023-01-17T05:44:00.974Z,6.20
2023-01-17T05:46:27.547Z,5.50
2023-01-17T05:48:54.092Z,2.20
2023-01-17T05:51:20.717Z,6.22
2023-01-17T05:53:47.191Z,5.93
2023-01-17T05:56:14.129Z,5.85
2023-01-17T05:58:40.688Z,6.80
2023-01-17T06:01:07.413Z,6.35
2023-01-17T06:03:33.900Z,6.75
2023-01-17T06:06:00.418Z,7.18
2023-01-17T06:08:26.978Z,6.90
2023-01-17T06:10:53.468Z,7.13
2023-01-17T06:13:23.115Z,2.38
2023-01-17T06:15:49.736Z,2.17
2023-01-17T06:18:17.970Z,9.70
2023-01-17T06:20:44.496Z,9.43
2023-01-17T06:23:13.402Z,9.48
2023-01-17T06:25:45.664Z,9.13
2023-01-17T06:28:21.797Z,3.20
2023-01-17T06:30:48.826Z,9.45
2023-01-17T06:33:15.473Z,10.75
2023-01-17T06:35:52.373Z,10.20
2023-01-17T06:38:19.151Z,11.23
2023-01-17T06:40:45.757Z,10.90
2023-01-17T06:43:12.248Z,11.75
2023-01-17T06:45:39.271Z,3.80
2023-01-17T06:48:06.059Z,11.38
2023-01-17T06:50:33.334Z,11.45
2023-01-17T06:53:05.269Z,11.30
2023-01-17T06:55:33.959Z,11.63
2023-01-17T06:58:02.416Z,12.90
2023-01-17T07:00:30.583Z,11.63
2023-01-17T07:02:58.836Z,12.15
2023-01-17T07:05:26.033Z,11.40
2023-01-17T07:07:53.520Z,4.00
2023-01-17T07:10:20.974Z,4.57
2023-01-17T07:12:47.503Z,12.13
2023-01-17T07:15:14.044Z,3.88
2023-01-17T07:17:40.497Z,4.07
2023-01-17T07:20:07.874Z,11.85
2023-01-17T07:22:34.623Z,4.13
2023-01-17T07:25:01.209Z,4.40
2023-01-17T07:27:30.264Z,4.90
2023-01-17T07:29:57.278Z,12.70
2023-01-17T07:32:25.932Z,11.85
2023-01-17T07:34:52.766Z,11.85
2023-01-17T07:37:19.987Z,11.18
2023-01-17T07:39:46.689Z,11.95
2023-01-17T07:42:13.233Z,4.70
2023-01-17T07:44:43.829Z,11.75
2023-01-17T07:47:10.937Z,4.50
2023-01-17T07:49:38.195Z,11.63
2023-01-17T07:52:07.653Z,11.98
2023-01-17T07:54:34.325Z,4.30
2023-01-17T07:57:01.300Z,4.65
2023-01-17T07:59:27.840Z,11.65
2023-01-17T08:01:54.403Z,12.45
2023-01-17T08:04:20.988Z,11.82
2023-01-17T08:06:48.714Z,4.65
2023-01-17T08:09:15.235Z,11.52
2023-01-17T08:11:41.765Z,12.15
2023-01-17T08:14:08.314Z,12.82
2023-01-17T08:16:34.865Z,4.63
2023-01-17T08:19:01.450Z,11.82
2023-01-17T08:21:28.087Z,11.80
2023-01-17T08:23:54.569Z,11.52
2023-01-17T08:26:22.294Z,5.15
2023-01-17T08:28:56.815Z,4.28
2023-01-17T08:31:24.461Z,11.63
2023-01-17T08:33:51.361Z,12.00
2023-01-17T08:36:18.180Z,11.70
2023-01-17T08:38:44.726Z,5.38
2023-01-17T08:41:11.265Z,4.65
2023-01-17T08:43:37.785Z,4.72
2023-01-17T08:46:06.121Z,12.35
2023-01-17T08:48:32.632Z,12.43
2023-01-17T08:51:02.831Z,13.02
2023-01-17T08:53:29.646Z,12.48
2023-01-17T08:56:00.682Z,13.45
2023-01-17T08:58:30.599Z,5.23
2023-01-17T09:01:06.013Z,13.38
2023-01-17T09:03:34.054Z,4.60
2023-01-17T09:06:06.339Z,13.02
2023-01-17T09:08:33.543Z,12.90
2023-01-17T09:11:13.130Z,13.60
2023-01-17T09:13:40.168Z,3.28
2023-01-17T09:16:07.547Z,13.05
2023-01-17T09:18:35.212Z,13.70
2023-01-17T09:21:16.979Z,13.48
2023-01-17T09:23:44.128Z,13.65
2023-01-17T09:26:23.880Z,13.68
2023-01-17T09:28:51.403Z,14.45
2023-01-17T09:31:20.726Z,4.05
2023-01-17T09:33:48.516Z,4.88
2023-01-17T09:36:15.278Z,13.55
2023-01-17T09:38:41.872Z,13.50
2023-01-17T09:41:22.080Z,5.95
2023-01-17T09:44:27.965Z,13.32
2023-01-17T09:46:59.970Z,5.03
2023-01-17T09:52:02.391Z,13.60
2023-01-17T09:54:35.733Z,5.97
2023-01-17T09:57:34.585Z,13.43
2023-01-17T10:00:36.174Z,12.23
2023-01-17T10:03:30.141Z,5.43
2023-01-17T10:06:02.455Z,12.02
2023-01-17T10:08:49.517Z,11.57
2023-01-17T10:11:38.610Z,4.97
2023-01-17T10:14:33.112Z,12.13
2023-01-17T10:17:41.524Z,11.95
2023-01-17T10:20:49.447Z,12.98
2023-01-17T10:23:25.161Z,12.23
2023-01-17T10:25:52.490Z,12.30
2023-01-17T10:28:26.603Z,12.70
2023-01-17T10:31:10.347Z,12.32
2023-01-17T10:33:50.279Z,5.22
2023-01-17T10:36:23.150Z,11.88
2023-01-17T10:38:53.596Z,12.52
2023-01-17T10:41:29.082Z,12.80
2023-01-17T10:44:07.524Z,4.53
2023-01-17T10:46:55.731Z,11.30
2023-01-17T10:49:24.630Z,11.23
2023-01-17T10:52:24.944Z,11.63
2023-01-17T10:55:05.064Z,10.80
2023-01-17T10:57:51.079Z,10.82
2023-01-17T11:00:48.526Z,10.68
2023-01-17T11:03:20.630Z,10.15
2023-01-17T11:08:55.106Z,10.20
2023-01-17T11:11:24.955Z,4.00
2023-01-17T11:13:54.344Z,9.80
2023-01-17T11:16:26.711Z,9.82
2023-01-17T11:19:12.637Z,9.73
2023-01-17T11:21:40.153Z,10.70
2023-01-17T11:24:16.277Z,9.90
2023-01-17T11:26:49.521Z,9.73
2023-01-17T11:29:37.140Z,8.90
2023-01-17T11:32:30.033Z,9.55
2023-01-17T11:35:19.992Z,4.10
2023-01-17T11:37:58.728Z,9.15
2023-01-17T11:40:43.889Z,8.80
2023-01-17T11:43:18.512Z,8.27
2023-01-17T11:45:46.704Z,8.80
2023-01-17T11:48:17.443Z,8.38
2023-01-17T11:51:11.911Z,8.63
2023-01-17T11:53:40.271Z,8.70
2023-01-17T11:56:46.259Z,9.10
2023-01-17T11:59:23.319Z,9.02
2023-01-17T12:02:19.000Z,7.45
2023-01-17T12:04:52.870Z,7.32
2023-01-17T12:07:27.086Z,6.93
2023-01-17T12:10:10.896Z,7.20
2023-01-17T12:13:12.293Z,7.28
2023-01-17T12:16:26.619Z,2.83
2023-01-17T12:19:14.717Z,7.63
2023-01-17T12:21:50.360Z,7.22
2023-01-17T12:24:47.725Z,7.03
2023-01-17T12:27:28.669Z,7.20
2023-01-17T12:30:17.806Z,6.95
2023-01-17T12:33:26.650Z,6.95
2023-01-17T12:35:56.056Z,6.53
2023-01-17T12:38:43.929Z,5.72
2023-01-17T12:41:19.147Z,4.15
2023-01-17T12:43:46.183Z,3.92
2023-01-17T12:46:23.592Z,4.03
2023-01-17T12:49:02.751Z,4.13
2023-01-17T12:51:41.115Z,3.75
2023-01-17T12:54:28.848Z,4.80
2023-01-17T12:57:18.711Z,3.85
2023-01-17T12:59:58.118Z,4.60
2023-01-17T13:02:55.228Z,4.78
2023-01-17T13:05:33.074Z,4.90
2023-01-17T13:08:04.654Z,4.85
2023-01-17T13:10:37.059Z,4.70
2023-01-17T13:13:20.153Z,4.65
2023-01-17T13:15:49.713Z,4.80
2023-01-17T13:18:22.988Z,5.43
2023-01-17T13:21:37.724Z,5.47
2023-01-17T13:24:26.749Z,5.10
2023-01-17T13:26:55.880Z,4.88
2023-01-17T13:29:25.248Z,5.38
2023-01-17T13:32:29.191Z,4.50
2023-01-17T13:35:16.876Z,4.65
2023-01-17T13:38:21.902Z,5.15
2023-01-17T13:41:06.768Z,4.05
2023-01-17T13:43:40.408Z,4.22
2023-01-17T13:46:07.493Z,4.15
2023-01-17T13:48:38.131Z,4.22
2023-01-17T13:51:09.492Z,4.30
2023-01-17T13:53:36.820Z,4.60
2023-01-17T13:56:19.928Z,4.90
2023-01-17T13:58:58.313Z,4.53
2023-01-17T14:01:24.999Z,4.60
2023-01-17T14:03:51.721Z,4.00
2023-01-17T14:06:36.999Z,3.95
2023-01-17T14:09:10.841Z,4.00
2023-01-17T14:11:56.508Z,4.20
2023-01-17T14:14:44.303Z,3.88
2023-01-17T14:17:20.331Z,3.92
2023-01-17T14:19:49.850Z,3.72
2023-01-17T14:22:19.335Z,4.00
2023-01-17T14:24:58.452Z,3.75
2023-01-17T14:27:27.186Z,4.03
2023-01-17T14:29:58.998Z,4.22
2023-01-17T14:35:05.590Z,4.82
2023-01-17T14:37:46.825Z,4.45
2023-01-17T14:40:22.140Z,4.53
2023-01-17T14:43:04.217Z,4.60
2023-01-17T14:48:02.640Z,4.90
2023-01-17T14:50:35.496Z,4.60
2023-01-17T14:53:17.958Z,5.45
2023-01-17T14:55:47.108Z,5.05
2023-01-17T14:58:22.438Z,5.68
2023-01-17T15:00:51.338Z,5.05
2023-01-17T15:03:17.993Z,5.00
2023-01-17T15:05:50.093Z,5.28
2023-01-17T15:08:19.868Z,5.05
2023-01-17T15:11:01.873Z,4.65
2023-01-17T15:16:30.106Z,5.03
2023-01-17T15:18:57.466Z,5.35
2023-01-17T15:21:37.061Z,5.32
2023-01-17T15:24:08.183Z,5.70
2023-01-17T15:26:38.934Z,5.55
2023-01-17T15:29:15.747Z,5.50
2023-01-17T15:31:51.351Z,5.50
2023-01-17T15:34:24.772Z,5.60
2023-01-17T15:36:52.329Z,5.50
2023-01-17T15:39:44.139Z,5.70
2023-01-17T15:42:23.601Z,5.63
2023-01-17T15:45:00.802Z,5.93
2023-01-17T15:47:33.403Z,6.10
2023-01-17T15:50:01.606Z,6.00
2023-01-17T15:52:28.634Z,6.75
2023-01-17T15:55:11.025Z,6.47
2023-01-17T15:57:38.841Z,6.90
2023-01-17T16:00:20.151Z,6.57
2023-01-17T16:02:55.400Z,7.18
2023-01-17T16:05:22.506Z,6.72
2023-01-17T16:08:02.312Z,6.47
2023-01-17T16:10:35.639Z,6.72
2023-01-17T16:13:03.487Z,6.60
2023-01-17T16:15:30.679Z,6.93
2023-01-17T16:18:02.253Z,7.90
2023-01-17T16:20:44.926Z,4.20
2023-01-17T16:23:11.690Z,7.03
2023-01-17T16:25:38.748Z,7.28
2023-01-17T16:28:06.111Z,8.20
2023-01-17T16:30:33.769Z,8.00
2023-01-17T16:33:00.430Z,7.72
2023-01-17T16:35:30.026Z,8.38
2023-01-17T16:37:57.729Z,8.20
2023-01-17T16:40:27.561Z,7.63
2023-01-17T16:42:56.160Z,8.88
2023-01-17T16:45:25.968Z,9.68
2023-01-17T16:47:54.142Z,13.63
2023-01-17T16:50:23.714Z,16.02
2023-01-17T16:52:51.748Z,18.27
2023-01-17T16:55:21.894Z,15.63
2023-01-17T16:57:50.015Z,14.75
2023-01-17T17:00:17.486Z,13.68
2023-01-17T17:02:44.392Z,15.07
2023-01-17T17:05:11.086Z,12.27
2023-01-17T17:07:42.801Z,11.38
2023-01-17T17:10:14.915Z,12.15
2023-01-17T17:12:42.442Z,12.85
2023-01-17T17:15:10.704Z,12.43
2023-01-17T17:17:41.724Z,13.10
2023-01-17T17:20:13.941Z,11.97
2023-01-17T17:22:45.368Z,12.23
2023-01-17T17:25:12.255Z,11.90
2023-01-17T17:27:38.993Z,11.95
2023-01-17T17:30:06.275Z,11.50
2023-01-17T17:32:32.856Z,11.88
2023-01-17T17:34:59.655Z,12.20
2023-01-17T17:37:28.885Z,12.38
2023-01-17T17:39:56.830Z,12.50
2023-01-17T17:42:23.474Z,13.82
2023-01-17T17:44:50.005Z,14.35
2023-01-17T17:47:16.600Z,13.38
2023-01-17T17:49:43.403Z,13.40
2023-01-17T17:52:09.870Z,12.98
2023-01-17T17:54:36.433Z,13.23
2023-01-17T17:57:02.991Z,12.85
2023-01-17T17:59:29.881Z,13.48
2023-01-17T18:01:57.019Z,13.32
2023-01-17T18:04:23.687Z,12.68
2023-01-17T18:06:50.213Z,12.63
2023-01-17T18:09:16.868Z,13.13
2023-01-17T18:11:44.397Z,11.85
2023-01-17T18:14:13.731Z,11.70
2023-01-17T18:16:43.733Z,11.13
2023-01-17T18:19:22.189Z,11.25
2023-01-17T18:21:50.353Z,11.00
2023-01-17T18:24:19.906Z,4.93
2023-01-17T18:26:51.745Z,4.63
2023-01-17T18:29:20.688Z,10.57
2023-01-17T18:31:50.064Z,9.60
2023-01-17T18:34:21.154Z,9.95
2023-01-17T18:36:47.907Z,10.65
2023-01-17T18:39:17.477Z,10.15
2023-01-17T18:41:44.212Z,10.70
2023-01-17T18:44:11.385Z,11.48
2023-01-17T18:46:38.719Z,11.43
2023-01-17T18:49:06.006Z,11.57
2023-01-17T18:51:34.373Z,5.50
2023-01-17T18:54:05.339Z,5.35
2023-01-17T18:56:36.349Z,10.70
2023-01-17T18:59:05.629Z,10.90
2023-01-17T19:01:35.675Z,11.20
2023-01-17T19:04:04.294Z,10.90
2023-01-17T19:06:33.751Z,5.80
2023-01-17T19:09:00.692Z,11.88
2023-01-17T19:11:28.442Z,12.27
2023-01-17T19:13:55.864Z,12.30
2023-01-17T19:16:30.332Z,12.57
2023-01-17T19:19:01.408Z,13.38
2023-01-17T19:21:28.679Z,5.93
2023-01-17T19:23:56.393Z,12.60
2023-01-17T19:26:24.964Z,12.30
2023-01-17T19:28:52.015Z,12.38
2023-01-17T19:31:22.002Z,12.73
2023-01-17T19:33:50.775Z,13.32
2023-01-17T19:36:20.905Z,13.25
2023-01-17T19:39:02.996Z,14.07
2023-01-17T19:41:32.090Z,7.60
2023-01-17T19:44:06.883Z,15.85
2023-01-17T19:46:34.206Z,16.85
2023-01-17T19:49:01.231Z,15.98
2023-01-17T19:51:28.170Z,15.65
2023-01-17T19:53:55.228Z,7.07
2023-01-17T19:56:25.401Z,15.45
2023-01-17T19:58:52.614Z,15.43
2023-01-17T20:01:28.534Z,15.27
2023-01-17T20:03:57.813Z,14.82
2023-01-17T20:06:27.473Z,6.05
2023-01-17T20:08:54.048Z,6.05
2023-01-17T20:11:23.408Z,15.43
2023-01-17T20:13:56.166Z,15.10
2023-01-17T20:16:24.512Z,15.82
2023-01-17T20:18:51.792Z,17.70
2023-01-17T20:21:23.836Z,16.67
2023-01-17T20:23:51.564Z,19.23
2023-01-17T20:26:34.249Z,19.90
2023-01-17T20:29:02.672Z,22.08
2023-01-17T20:31:29.956Z,21.10
2023-01-17T20:33:56.615Z,21.30
2023-01-17T20:36:25.476Z,20.63
2023-01-17T20:38:53.166Z,20.08
2023-01-17T20:41:22.966Z,18.10
2023-01-17T20:43:52.398Z,8.18
2023-01-17T20:46:20.938Z,6.97
2023-01-17T20:48:50.593Z,17.10
2023-01-17T20:51:17.934Z,17.55
2023-01-17T20:53:46.305Z,18.10
2023-01-17T20:56:15.296Z,18.27
2023-01-17T20:58:42.537Z,18.42
2023-01-17T21:01:11.685Z,17.63
2023-01-17T21:03:39.722Z,8.13
2023-01-17T21:06:11.401Z,9.32
2023-01-17T21:08:39.503Z,22.23
2023-01-17T21:11:07.521Z,21.92
2023-01-17T21:13:34.600Z,19.77
2023-01-17T21:16:01.589Z,18.25
2023-01-17T21:18:32.981Z,8.85
2023-01-17T21:21:17.746Z,16.60
2023-01-17T21:23:45.414Z,21.02
2023-01-17T21:26:14.474Z,22.25
2023-01-17T21:28:43.116Z,23.77
2023-01-17T21:31:24.085Z,28.33
2023-01-17T21:33:59.868Z,28.05
2023-01-17T21:36:30.656Z,24.13
2023-01-17T21:38:59.190Z,25.02
2023-01-17T21:41:28.580Z,9.85
2023-01-17T21:43:57.339Z,19.63
2023-01-17T21:46:24.556Z,7.03
2023-01-17T21:48:51.111Z,19.60
2023-01-17T21:51:19.336Z,20.92
2023-01-17T21:53:45.834Z,10.50
2023-01-17T21:56:32.686Z,12.10
2023-01-17T21:58:59.756Z,29.75
2023-01-17T22:01:32.523Z,27.85
2023-01-17T22:04:02.791Z,26.08
2023-01-17T22:06:31.518Z,21.75
2023-01-17T22:08:59.097Z,24.73
2023-01-17T22:11:26.996Z,9.38
2023-01-17T22:13:53.513Z,19.02
2023-01-17T22:16:25.244Z,9.40
2023-01-17T22:18:51.977Z,17.00
2023-01-17T22:21:21.482Z,16.88
2023-01-17T22:23:53.223Z,15.80
2023-01-17T22:26:21.621Z,7.18
2023-01-17T22:28:48.449Z,7.30
2023-01-17T22:31:17.444Z,16.13
2023-01-17T22:33:45.494Z,6.15
2023-01-17T22:36:16.512Z,16.20
2023-01-17T22:38:43.723Z,8.63
2023-01-17T22:41:13.069Z,8.57
2023-01-17T22:43:42.524Z,15.98
2023-01-17T22:46:12.275Z,14.82
2023-01-17T22:48:39.796Z,15.35
2023-01-17T22:51:08.834Z,15.52
2023-01-17T22:53:41.553Z,15.02
2023-01-17T22:56:12.021Z,15.02
2023-01-17T22:58:42.136Z,14.88
2023-01-17T23:01:11.359Z,6.45
2023-01-17T23:03:38.556Z,15.73
2023-01-17T23:06:10.157Z,14.82
2023-01-17T23:08:38.068Z,7.13
2023-01-17T23:11:39.117Z,14.88
2023-01-17T23:14:09.063Z,15.75
2023-01-17T23:16:55.701Z,7.15
2023-01-17T23:19:22.749Z,6.20
2023-01-17T23:22:10.852Z,15.05
2023-01-17T23:24:43.225Z,14.70
2023-01-17T23:27:32.093Z,6.93
2023-01-17T23:29:58.816Z,15.00
2023-01-17T23:32:26.144Z,15.23
2023-01-17T23:34:53.256Z,14.35
2023-01-17T23:37:20.034Z,7.03
2023-01-17T23:39:46.567Z,6.38
2023-01-17T23:42:31.713Z,7.28
2023-01-17T23:44:58.341Z,14.30
2023-01-17T23:47:24.919Z,14.38
2023-01-17T23:49:51.490Z,15.55
2023-01-17T23:52:18.024Z,14.98
2023-01-17T23:54:44.585Z,7.88
2023-01-17T23:57:11.099Z,14.40
2023-01-17T23:59:37.632Z,15.00
